This is the latest recevied weather packets stored in our database for station/object K9JWM. If no packets are shown the sender has not sent any weather packets the latest 10 day(s).
| Time | Temp. | Humidity | Pressure | Rain* | Wind** | Luminosity | Snow |
|---|---|---|---|---|---|---|---|
| 1777845730 | 17.78° C | 23% | 1002.1 hPa | 0 mm | - | - | - |
| 1777844830 | 17.78° C | 24% | 1002.1 hPa | 0 mm | - | - | - |
| 1777843929 | 17.78° C | 25% | 1002 hPa | 0 mm | - | - | - |
| 1777843030 | 17.78° C | 24% | 1002 hPa | 0 mm | - | - | - |
| 1777842129 | 18.33° C | 26% | 1001.9 hPa | 0 mm | - | - | - |
| 1777841230 | 17.78° C | 28% | 1002.1 hPa | 0 mm | - | - | - |
| 1777840329 | 18.33° C | 28% | 1002.1 hPa | 0 mm | - | - | - |
| 1777839429 | 17.78° C | 32% | 1002.3 hPa | 0 mm | - | - | - |
| 1777838530 | 17.78° C | 32% | 1002.2 hPa | 0 mm | - | - | - |
| 1777837630 | 17.78° C | 32% | 1002.2 hPa | 0 mm | - | - | - |
| 1777836729 | 17.78° C | 32% | 1002.4 hPa | 0 mm | - | - | - |
| 1777835829 | 17.22° C | 33% | 1002.6 hPa | 0 mm | - | - | - |
| 1777834930 | 17.22° C | 35% | 1002.6 hPa | 0 mm | - | - | - |
| 1777834030 | 17.22° C | 38% | 1002.7 hPa | 0 mm | - | - | - |
| 1777833129 | 17.22° C | 38% | 1002.7 hPa | 0 mm | - | - | - |
| 1777832230 | 17.78° C | 37% | 1003 hPa | 0 mm | - | - | - |
| 1777831329 | 17.22° C | 39% | 1003 hPa | 0 mm | - | - | - |
| 1777830430 | 17.22° C | 38% | 1003.2 hPa | 0 mm | - | - | - |
| 1777829529 | 16.67° C | 43% | 1003.2 hPa | 0 mm | - | - | - |
| 1777828630 | 16.67° C | 44% | 1003.3 hPa | 0 mm | - | - | - |
| 1777827729 | 17.22° C | 41% | 1003.6 hPa | 0 mm | - | - | - |
| 1777826829 | 17.22° C | 44% | 1003.5 hPa | 0 mm | - | - | - |
| 1777825930 | 16.11° C | 46% | 1003.4 hPa | 0 mm | - | - | - |
| 1777825030 | 16.11° C | 48% | 1003.5 hPa | 0 mm | - | - | - |
| 1777824129 | 15.56° C | 48% | 1003.6 hPa | 0 mm | - | - | - |
* Rain latest hour (hover to see other rain measurements)
** Current wind speed in m/s (hover to see current wind gust speed)